Time;durP1;ratioP1;P1;durP2;ratioP2;P2;SDS_P1;SDS_P2;PMS_P1;PMS_P2;Temp;Humidity;BMP_temperature;BMP_pressure;BME280_temperature;BME280_humidity;BME280_pressure;Samples;Min_cycle;Max_cycle;Signal;HPM_P1;HPM_P2
2022/05/05 00:02:15;;;;;;;16.90;14.40;;;;;;;9.79;68.73;99132.10;104957;1271;74611;-72
2022/05/05 00:04:41;;;;;;;15.40;13.10;;;;;;;9.78;68.99;99129.55;105214;1270;69203;-71
2022/05/05 00:07:08;;;;;;;16.50;14.10;;;;;;;9.76;69.22;99125.89;105179;1270;72307;-70
2022/05/05 00:09:34;;;;;;;17.30;13.20;;;;;;;9.75;69.29;99127.45;105171;1270;60488;-70
2022/05/05 00:14:46;;;;;;;14.40;12.80;;;;;;;9.72;69.76;99131.52;105209;1270;75528;-69
2022/05/05 00:17:13;;;;;;;17.20;14.30;;;;;;;9.70;69.87;99129.48;105169;1270;60470;-71
2022/05/05 00:19:42;;;;;;;15.80;14.00;;;;;;;9.67;69.97;99129.34;105162;1270;60588;-71
2022/05/05 00:22:09;;;;;;;15.80;14.00;;;;;;;9.63;70.05;99129.35;105156;1270;61012;-70
2022/05/05 00:24:38;;;;;;;16.10;14.00;;;;;;;9.59;70.36;99129.97;105143;1270;60731;-70
2022/05/05 00:27:06;;;;;;;17.20;13.90;;;;;;;9.56;70.65;99129.11;105255;1270;72932;-70
2022/05/05 00:29:33;;;;;;;17.60;15.30;;;;;;;9.52;70.80;99131.48;104880;1271;69665;-70
2022/05/05 00:31:59;;;;;;;17.30;14.50;;;;;;;9.47;71.02;99131.23;105154;1270;71488;-71
2022/05/05 00:34:26;;;;;;;17.20;14.40;;;;;;;9.47;71.27;99130.39;105126;1270;60517;-69
2022/05/05 00:36:52;;;;;;;18.10;15.60;;;;;;;9.43;71.28;99127.61;105169;1270;60989;-71
2022/05/05 00:39:19;;;;;;;19.20;14.90;;;;;;;9.37;71.42;99128.67;105142;1270;74105;-70
2022/05/05 00:41:47;;;;;;;18.50;14.80;;;;;;;9.31;71.46;99128.82;105156;1270;60491;-70
2022/05/05 00:44:15;;;;;;;16.90;14.30;;;;;;;9.28;71.68;99130.28;105135;1271;72390;-71
2022/05/05 00:46:48;;;;;;;18.00;14.90;;;;;;;9.24;71.74;99131.73;105207;1270;60492;-72
2022/05/05 00:49:15;;;;;;;17.50;15.60;;;;;;;9.24;72.02;99127.67;105179;1270;61092;-70
2022/05/05 00:51:41;;;;;;;17.70;15.60;;;;;;;9.25;72.15;99122.83;105192;1270;74924;-70
2022/05/05 00:54:08;;;;;;;16.70;13.90;;;;;;;9.24;72.30;99123.39;105129;1270;70706;-70
2022/05/05 00:56:36;;;;;;;16.30;14.30;;;;;;;9.24;72.41;99129.61;105162;1270;74684;-71
2022/05/05 00:59:05;;;;;;;16.20;14.50;;;;;;;9.21;72.50;99126.58;105115;1270;60559;-71
2022/05/05 01:01:33;;;;;;;18.70;14.70;;;;;;;9.19;72.45;99127.23;105164;1271;62115;-71
2022/05/05 01:04:01;;;;;;;20.20;15.60;;;;;;;9.16;72.60;99126.15;105137;1270;75552;-70
2022/05/05 01:06:29;;;;;;;19.50;14.70;;;;;;;9.13;72.72;99129.73;105143;1270;69197;-70
2022/05/05 01:08:56;;;;;;;17.50;15.00;;;;;;;9.07;72.87;99129.36;105204;1270;74157;-70
2022/05/05 01:11:22;;;;;;;17.50;14.40;;;;;;;9.00;73.04;99127.08;105145;1270;60668;-70
2022/05/05 01:13:49;;;;;;;17.70;14.10;;;;;;;8.98;73.01;99130.23;105022;1271;60485;-71
2022/05/05 01:16:16;;;;;;;19.70;15.20;;;;;;;8.95;73.37;99126.87;105152;1270;75809;-70
2022/05/05 01:18:43;;;;;;;19.70;15.80;;;;;;;8.91;73.50;99128.17;105158;1270;70116;-70
2022/05/05 01:21:10;;;;;;;19.90;15.90;;;;;;;8.86;73.75;99131.63;105133;1270;60502;-70
2022/05/05 01:23:38;;;;;;;21.40;16.50;;;;;;;8.82;73.89;99134.52;105178;1270;60580;-71
2022/05/05 01:28:51;;;;;;;19.00;16.30;;;;;;;8.71;74.38;99131.77;105161;1271;74303;-69
2022/05/05 01:31:19;;;;;;;18.10;15.70;;;;;;;8.66;74.43;99131.75;105175;1270;70305;-69
2022/05/05 01:33:45;;;;;;;17.20;15.40;;;;;;;8.63;74.54;99130.52;104909;1273;72584;-69
2022/05/05 01:36:12;;;;;;;18.60;16.40;;;;;;;8.57;74.73;99127.27;105156;1270;60474;-69
2022/05/05 01:38:43;;;;;;;19.90;17.50;;;;;;;8.52;74.94;99127.02;105067;1271;60709;-70
2022/05/05 01:41:12;;;;;;;20.80;17.90;;;;;;;8.48;75.20;99129.02;105186;1270;74474;-70
2022/05/05 01:43:41;;;;;;;21.90;18.80;;;;;;;8.44;75.40;99127.63;104843;1270;69279;-72
2022/05/05 01:46:08;;;;;;;22.30;18.20;;;;;;;8.40;75.62;99124.36;105155;1271;72712;-70
2022/05/05 01:48:35;;;;;;;21.40;19.20;;;;;;;8.36;75.68;99126.65;105145;1270;60468;-70
2022/05/05 01:51:04;;;;;;;22.30;18.90;;;;;;;8.33;75.81;99125.06;105142;1271;61845;-70
2022/05/05 01:53:37;;;;;;;21.50;18.10;;;;;;;8.29;76.00;99130.02;104968;1271;75628;-70
2022/05/05 01:56:09;;;;;;;23.30;18.90;;;;;;;8.25;76.16;99129.19;105152;1270;69454;-71
2022/05/05 01:58:35;;;;;;;21.80;18.90;;;;;;;8.22;76.38;99131.85;105213;1270;73714;-69
2022/05/05 02:01:02;;;;;;;21.00;18.60;;;;;;;8.19;76.62;99133.10;105182;1270;60495;-70
2022/05/05 02:03:28;;;;;;;23.10;19.20;;;;;;;8.17;76.67;99129.85;105127;1271;60359;-71
2022/05/05 02:05:55;;;;;;;21.40;19.00;;;;;;;8.14;76.68;99133.70;105172;1270;60408;-71
2022/05/05 02:08:21;;;;;;;22.20;19.10;;;;;;;8.10;76.81;99134.09;105126;1271;60527;-70
2022/05/05 02:10:48;;;;;;;22.10;19.60;;;;;;;8.06;76.87;99135.90;105159;1271;73216;-70
2022/05/05 02:13:14;;;;;;;24.20;19.80;;;;;;;8.03;77.21;99134.86;104910;1270;60466;-70
2022/05/05 02:15:41;;;;;;;23.90;19.50;;;;;;;7.99;77.40;99137.85;105133;1271;60360;-70
2022/05/05 02:18:12;;;;;;;24.30;20.90;;;;;;;7.97;77.61;99134.83;105125;1270;60425;-70
2022/05/05 02:20:39;;;;;;;22.10;19.80;;;;;;;7.95;77.96;99134.56;105178;1270;69205;-70
2022/05/05 02:23:07;;;;;;;22.10;19.70;;;;;;;7.94;78.34;99132.67;105151;1270;73191;-70
2022/05/05 02:25:34;;;;;;;20.50;18.30;;;;;;;7.93;78.65;99128.66;105153;1270;60702;-70
2022/05/05 02:28:01;;;;;;;24.70;20.00;;;;;;;7.93;79.18;99129.88;104895;1271;60809;-70
2022/05/05 02:30:29;;;;;;;23.20;20.80;;;;;;;7.92;79.10;99131.01;105164;1270;73357;-70
2022/05/05 02:32:56;;;;;;;25.80;21.80;;;;;;;7.89;79.49;99134.85;105193;1270;70154;-70
2022/05/05 02:35:24;;;;;;;24.70;22.10;;;;;;;7.86;79.68;99143.37;105132;1271;73757;-70
2022/05/05 02:40:36;;;;;;;25.60;22.60;;;;;;;7.77;80.28;99145.27;104967;1274;60474;-70
2022/05/05 02:43:03;;;;;;;25.50;22.80;;;;;;;7.74;80.54;99144.71;105158;1271;60581;-70
2022/05/05 02:45:30;;;;;;;26.90;24.00;;;;;;;7.72;80.76;99145.88;105177;1271;70288;-71
2022/05/05 02:47:58;;;;;;;26.60;23.60;;;;;;;7.68;80.92;99145.02;105183;1270;73615;-70
2022/05/05 02:50:25;;;;;;;25.40;22.80;;;;;;;7.67;81.02;99145.79;105172;1271;60497;-69
2022/05/05 02:52:53;;;;;;;27.00;23.80;;;;;;;7.66;81.17;99145.98;105177;1271;60875;-71
2022/05/05 02:55:20;;;;;;;28.40;24.90;;;;;;;7.66;81.24;99145.29;105191;1271;74537;-71
2022/05/05 02:57:48;;;;;;;29.20;24.00;;;;;;;7.66;81.42;99148.12;105128;1270;68696;-71
2022/05/05 03:00:15;;;;;;;28.90;24.80;;;;;;;7.67;81.57;99152.31;105144;1271;74144;-70
2022/05/05 03:02:43;;;;;;;24.70;22.10;;;;;;;7.69;81.69;99148.86;105179;1271;60540;-71
2022/05/05 03:05:13;;;;;;;28.90;25.80;;;;;;;7.71;81.89;99148.75;105211;1270;60969;-71
2022/05/05 03:07:41;;;;;;;29.80;26.10;;;;;;;7.74;82.15;99149.47;105131;1270;75410;-70
2022/05/05 03:10:09;;;;;;;29.20;26.10;;;;;;;7.77;82.38;99147.38;105010;1272;69254;-70
2022/05/05 03:12:36;;;;;;;32.20;25.60;;;;;;;7.80;82.66;99152.71;105203;1270;73258;-72
2022/05/05 03:15:03;;;;;;;27.60;24.70;;;;;;;7.79;82.64;99152.38;105120;1270;60581;-71
2022/05/05 03:17:29;;;;;;;29.30;25.50;;;;;;;7.80;82.97;99159.08;105140;1270;60779;-71
2022/05/05 03:19:56;;;;;;;30.20;26.90;;;;;;;7.81;83.12;99159.39;105148;1271;75518;-71
2022/05/05 03:22:23;;;;;;;29.00;25.70;;;;;;;7.83;83.27;99161.39;105120;1270;60549;-70
2022/05/05 03:24:50;;;;;;;33.00;28.90;;;;;;;7.89;83.51;99162.11;105167;1270;73238;-70
2022/05/05 03:27:16;;;;;;;34.00;29.90;;;;;;;8.01;84.39;99162.02;104905;1271;60476;-70
2022/05/05 03:29:43;;;;;;;35.70;30.00;;;;;;;8.14;84.73;99159.36;105193;1270;60396;-70
2022/05/05 03:32:09;;;;;;;32.20;28.80;;;;;;;8.27;84.88;99156.73;104896;1271;60935;-70
2022/05/05 03:34:36;;;;;;;36.00;29.60;;;;;;;8.39;85.45;99155.17;105133;1270;60481;-71
2022/05/05 03:37:03;;;;;;;31.30;28.00;;;;;;;8.52;85.86;99153.94;104873;1272;60526;-70
2022/05/05 03:39:29;;;;;;;31.00;27.50;;;;;;;8.65;85.59;99159.56;105140;1271;60488;-71
2022/05/05 03:41:56;;;;;;;31.30;28.00;;;;;;;8.85;85.53;99158.09;105100;1271;60457;-70
2022/05/05 03:44:23;;;;;;;32.70;29.10;;;;;;;8.99;85.19;99166.51;105019;1270;74492;-69
2022/05/05 03:46:50;;;;;;;30.60;27.50;;;;;;;9.03;85.18;99165.60;105139;1270;67816;-71
2022/05/05 03:49:16;;;;;;;32.30;28.70;;;;;;;9.06;85.10;99170.53;105111;1271;60549;-70
2022/05/05 03:51:43;;;;;;;31.40;28.20;;;;;;;9.09;85.14;99171.41;105082;1271;60390;-72
2022/05/05 03:54:09;;;;;;;30.50;27.30;;;;;;;9.14;84.92;99173.80;105156;1271;60797;-71
2022/05/05 03:56:36;;;;;;;32.20;28.50;;;;;;;9.20;84.83;99176.46;105136;1271;60495;-71
2022/05/05 03:59:02;;;;;;;32.60;29.10;;;;;;;9.28;84.93;99175.14;105083;1271;60526;-72
2022/05/05 04:01:29;;;;;;;31.70;28.50;;;;;;;9.34;84.88;99173.84;105003;1271;60460;-71
2022/05/05 04:03:55;;;;;;;30.80;27.70;;;;;;;9.43;84.67;99172.43;105059;1271;60565;-71
2022/05/05 04:06:22;;;;;;;31.40;27.50;;;;;;;9.54;84.58;99177.98;104939;1274;60393;-70
2022/05/05 04:08:48;;;;;;;30.30;27.20;;;;;;;9.66;84.57;99175.88;105103;1270;60371;-70
2022/05/05 04:11:15;;;;;;;31.20;27.90;;;;;;;9.79;84.16;99171.15;105119;1271;60775;-71
2022/05/05 04:13:42;;;;;;;31.30;27.90;;;;;;;9.97;83.83;99173.60;105094;1271;73591;-72
2022/05/05 04:16:09;;;;;;;29.40;26.40;;;;;;;10.34;83.41;99173.46;105103;1271;60401;-70
2022/05/05 04:18:35;;;;;;;28.30;25.30;;;;;;;11.22;81.95;99171.86;105153;1271;60476;-71
2022/05/05 04:21:03;;;;;;;28.00;23.90;;;;;;;12.02;80.33;99172.64;105112;1271;74216;-74
2022/05/05 04:23:29;;;;;;;26.50;23.80;;;;;;;12.73;78.99;99170.60;104894;1272;69199;-72
2022/05/05 04:25:56;;;;;;;25.90;22.90;;;;;;;13.39;77.19;99169.45;104997;1270;72563;-73
2022/05/05 04:28:23;;;;;;;24.30;22.00;;;;;;;13.99;75.56;99171.28;105085;1270;61141;-72
2022/05/05 04:30:50;;;;;;;23.00;20.70;;;;;;;14.45;74.12;99174.27;105076;1271;60495;-72
2022/05/05 04:33:16;;;;;;;21.40;19.30;;;;;;;14.95;72.90;99173.28;105134;1271;75762;-72
2022/05/05 04:35:44;;;;;;;22.80;20.40;;;;;;;15.48;71.12;99173.56;105124;1271;68142;-72
2022/05/05 04:38:11;;;;;;;20.40;18.40;;;;;;;15.98;69.35;99174.16;105117;1270;74422;-71
2022/05/05 04:40:37;;;;;;;23.40;20.70;;;;;;;16.34;67.92;99171.06;105044;1271;60379;-72
2022/05/05 04:43:04;;;;;;;20.70;18.60;;;;;;;16.77;66.59;99174.90;105110;1270;60460;-72
2022/05/05 04:45:31;;;;;;;20.10;18.10;;;;;;;17.10;64.46;99172.10;104847;1272;74585;-73
2022/05/05 04:47:58;;;;;;;19.00;17.20;;;;;;;17.20;63.47;99173.20;104990;1271;70552;-73
2022/05/05 04:50:24;;;;;;;20.20;18.30;;;;;;;16.69;62.73;99177.40;104969;1271;74757;-73
2022/05/05 04:52:51;;;;;;;19.70;17.60;;;;;;;16.41;62.22;99178.83;105071;1270;60367;-73
2022/05/05 04:55:18;;;;;;;18.60;16.70;;;;;;;16.42;62.47;99178.01;105150;1271;60415;-74
2022/05/05 04:57:44;;;;;;;18.90;17.00;;;;;;;16.43;62.14;99178.45;105100;1271;74643;-73
2022/05/05 05:00:11;;;;;;;18.40;16.60;;;;;;;16.27;61.51;99181.70;105107;1271;60490;-73
2022/05/05 05:02:38;;;;;;;20.00;17.90;;;;;;;16.16;61.36;99182.47;105095;1271;74093;-74
2022/05/05 05:05:05;;;;;;;19.00;17.20;;;;;;;16.16;61.48;99184.06;104929;1271;60572;-76
2022/05/05 05:07:31;;;;;;;19.70;17.80;;;;;;;16.36;61.15;99181.04;104905;1274;60458;-74
2022/05/05 05:09:58;;;;;;;27.30;18.00;;;;;;;16.54;60.83;99181.22;105135;1271;60374;-75
2022/05/05 05:12:24;;;;;;;21.00;18.80;;;;;;;16.78;59.90;99175.59;104992;1272;60728;-76
2022/05/05 05:14:51;;;;;;;20.10;18.00;;;;;;;16.88;59.86;99175.71;105068;1271;73105;-74
2022/05/05 05:17:17;;;;;;;19.50;17.50;;;;;;;17.12;59.32;99171.57;105071;1271;60530;-75
2022/05/05 05:19:44;;;;;;;20.20;18.10;;;;;;;17.40;58.82;99172.79;104993;1271;60578;-74
2022/05/05 05:22:11;;;;;;;20.00;18.00;;;;;;;17.65;58.56;99172.98;105065;1271;74748;-76
2022/05/05 05:24:37;;;;;;;21.80;19.80;;;;;;;17.55;58.22;99170.55;105090;1271;60575;-75
2022/05/05 05:27:04;;;;;;;22.10;20.00;;;;;;;17.44;57.71;99173.90;105009;1271;71389;-74
2022/05/05 05:29:31;;;;;;;23.90;19.90;;;;;;;17.95;56.83;99173.95;105098;1271;60973;-75
2022/05/05 05:31:57;;;;;;;21.20;18.90;;;;;;;17.88;56.58;99174.66;104983;1271;60549;-75
2022/05/05 05:34:24;;;;;;;19.50;17.60;;;;;;;18.21;55.66;99173.64;105053;1271;60950;-75
2022/05/05 05:36:51;;;;;;;19.60;17.60;;;;;;;18.51;54.96;99174.20;104952;1271;60652;-75
2022/05/05 05:39:17;;;;;;;20.80;18.70;;;;;;;18.64;54.89;99176.91;104885;1272;72174;-74
2022/05/05 05:41:44;;;;;;;19.50;17.50;;;;;;;18.62;54.40;99176.02;104953;1271;60501;-73
2022/05/05 05:44:11;;;;;;;29.30;20.10;;;;;;;18.50;54.99;99182.08;105119;1271;60489;-75
2022/05/05 05:46:38;;;;;;;21.70;19.60;;;;;;;18.41;55.13;99183.20;105058;1271;74772;-75
2022/05/05 05:49:09;;;;;;;20.50;18.50;;;;;;;18.51;54.97;99182.67;104868;1271;291830;-73
2022/05/05 05:51:36;;;;;;;22.20;19.90;;;;;;;19.21;54.27;99182.83;105087;1271;74321;-75
2022/05/05 05:54:03;;;;;;;22.80;20.20;;;;;;;19.30;54.16;99181.52;104936;1271;60453;-75
2022/05/05 05:56:31;;;;;;;22.90;20.60;;;;;;;19.19;54.01;99178.47;105034;1271;60907;-74
2022/05/05 05:58:57;;;;;;;23.70;21.40;;;;;;;19.06;53.67;99184.27;105049;1271;74314;-75
2022/05/05 06:03:53;;;;;;;22.10;19.80;;;;;;;19.00;53.75;99185.92;104882;1273;69185;-75
2022/05/05 06:04:10;;;;;;;21.40;19.20;;;;;;;19.41;53.02;99186.02;105119;1270;73419;-75
2022/05/05 06:06:38;;;;;;;19.60;17.70;;;;;;;19.68;52.57;99186.52;105313;1270;60469;-75
2022/05/05 06:09:05;;;;;;;21.10;18.90;;;;;;;19.71;52.48;99187.20;105201;1270;60968;-73
2022/05/05 06:11:31;;;;;;;22.00;19.40;;;;;;;19.56;52.21;99189.55;105180;1270;74584;-73
2022/05/05 06:13:58;;;;;;;21.40;18.80;;;;;;;19.36;52.23;99191.75;105170;1270;60590;-74
2022/05/05 06:16:25;;;;;;;23.00;20.50;;;;;;;19.32;52.28;99195.77;105158;1270;72712;-74
2022/05/05 06:18:52;;;;;;;21.30;19.30;;;;;;;19.34;52.16;99197.80;105236;1270;60569;-74
2022/05/05 06:21:19;;;;;;;21.50;19.30;;;;;;;19.19;51.89;99194.69;105127;1271;62087;-75
2022/05/05 06:23:46;;;;;;;20.20;17.80;;;;;;;19.08;52.00;99197.13;105210;1270;75724;-75
2022/05/05 06:26:12;;;;;;;19.50;17.10;;;;;;;18.98;51.98;99198.92;105163;1270;60624;-75
2022/05/05 06:28:39;;;;;;;20.10;18.00;;;;;;;19.02;52.10;99196.36;105139;1270;60578;-74
2022/05/05 06:31:05;;;;;;;18.10;16.30;;;;;;;19.08;52.06;99200.88;105159;1270;60604;-76
2022/05/05 06:33:32;;;;;;;19.00;16.00;;;;;;;19.05;51.98;99199.83;105156;1270;60389;-74
2022/05/05 06:35:58;;;;;;;16.40;14.80;;;;;;;19.02;51.81;99201.66;105159;1270;73897;-75
2022/05/05 06:38:25;;;;;;;16.90;15.40;;;;;;;19.04;52.11;99198.20;105157;1270;60492;-74
2022/05/05 06:40:52;;;;;;;16.40;14.80;;;;;;;19.12;52.09;99197.23;105166;1270;72809;-75
2022/05/05 06:43:19;;;;;;;15.80;14.30;;;;;;;19.27;52.08;99195.91;105136;1270;60457;-75
2022/05/05 06:45:46;;;;;;;17.60;14.40;;;;;;;19.36;51.54;99194.45;104914;1270;60383;-75
2022/05/05 06:48:13;;;;;;;15.60;13.90;;;;;;;19.44;51.54;99203.52;105190;1271;75360;-75
2022/05/05 06:50:40;;;;;;;15.40;13.80;;;;;;;19.49;51.48;99202.68;105143;1270;69257;-77
2022/05/05 06:53:06;;;;;;;16.20;14.60;;;;;;;19.58;51.74;99206.71;105149;1271;73560;-74
2022/05/05 06:55:33;;;;;;;16.10;14.50;;;;;;;19.70;52.00;99209.40;105148;1270;60507;-75
2022/05/05 06:57:59;;;;;;;17.70;14.20;;;;;;;19.79;51.48;99209.44;105120;1271;60564;-75
2022/05/05 07:01:51;;;;;;;18.30;14.50;;;;;;;20.01;50.98;99210.61;105160;1270;60459;-75
2022/05/05 07:03:12;;;;;;;15.40;13.90;;;;;;;20.43;50.94;99211.15;104971;1270;69234;-74
2022/05/05 07:05:39;;;;;;;15.10;13.80;;;;;;;20.53;50.64;99205.02;105149;1270;73440;-75
2022/05/05 07:08:05;;;;;;;14.90;13.30;;;;;;;20.44;50.46;99203.95;105154;1270;60486;-76
2022/05/05 07:13:17;;;;;;;15.20;13.70;;;;;;;20.17;50.59;99208.27;105160;1270;74438;-75
2022/05/05 07:15:44;;;;;;;16.50;14.80;;;;;;;20.13;51.03;99209.56;105168;1270;70476;-75
2022/05/05 07:18:10;;;;;;;15.20;13.70;;;;;;;20.02;50.99;99206.61;105178;1270;71873;-74
2022/05/05 07:20:37;;;;;;;18.20;13.20;;;;;;;19.95;51.24;99203.30;105147;1270;60523;-74
2022/05/05 07:23:05;;;;;;;14.80;13.30;;;;;;;19.92;51.25;99205.59;105170;1270;60485;-76
2022/05/05 07:25:31;;;;;;;15.00;13.50;;;;;;;19.85;51.44;99205.97;105203;1270;74324;-76
2022/05/05 07:27:57;;;;;;;13.70;12.50;;;;;;;19.78;51.33;99203.60;105145;1270;60585;-74
2022/05/05 07:30:24;;;;;;;13.30;11.90;;;;;;;19.74;51.39;99207.73;105132;1270;60562;-74
2022/05/05 07:32:51;;;;;;;13.60;12.00;;;;;;;19.70;51.86;99202.39;105170;1270;60580;-74
2022/05/05 07:35:17;;;;;;;12.60;11.30;;;;;;;19.81;51.78;99204.35;105145;1269;62201;-75
2022/05/05 07:37:45;;;;;;;13.30;12.00;;;;;;;19.89;51.58;99205.15;105070;1270;60446;-75
2022/05/05 07:40:11;;;;;;;12.30;11.10;;;;;;;20.05;51.86;99206.62;104967;1270;69374;-75
2022/05/05 07:42:40;;;;;;;10.80;9.80;;;;;;;20.31;52.53;99206.13;105177;1269;74429;-76
2022/05/05 07:45:09;;;;;;;10.50;9.60;;;;;;;20.60;52.17;99206.45;105167;1270;60545;-75
2022/05/05 07:47:35;;;;;;;9.50;8.50;;;;;;;20.84;51.67;99201.80;105154;1270;62105;-75
2022/05/05 07:50:03;;;;;;;9.20;8.30;;;;;;;21.00;51.28;99201.84;105176;1269;75338;-75
2022/05/05 07:52:30;;;;;;;8.60;7.70;;;;;;;21.12;50.36;99202.93;105145;1270;69806;-75
2022/05/05 07:54:57;;;;;;;6.10;5.50;;;;;;;21.19;49.43;99200.67;105181;1270;60628;-76
2022/05/05 07:57:23;;;;;;;8.80;6.80;;;;;;;21.25;48.93;99200.62;105160;1268;60507;-76
2022/05/05 07:59:50;;;;;;;9.60;8.50;;;;;;;21.40;48.87;99199.80;105182;1268;61919;-76
2022/05/05 08:02:17;;;;;;;8.20;7.50;;;;;;;21.52;48.85;99202.58;105206;1268;75275;-77
2022/05/05 08:04:44;;;;;;;8.10;7.30;;;;;;;21.51;48.20;99203.23;105214;1268;69109;-75
2022/05/05 08:07:11;;;;;;;8.40;6.80;;;;;;;21.32;47.95;99208.88;105163;1268;74109;-75
2022/05/05 08:09:38;;;;;;;7.10;6.50;;;;;;;21.27;48.05;99209.61;105203;1268;60498;-75
2022/05/05 08:12:06;;;;;;;6.80;6.30;;;;;;;21.29;47.88;99209.30;105173;1268;61859;-80
2022/05/05 08:14:33;;;;;;;5.70;5.30;;;;;;;21.40;47.50;99210.26;104971;1268;75916;-78
2022/05/05 08:16:59;;;;;;;8.40;6.50;;;;;;;21.49;47.93;99210.70;105199;1268;60620;-76
2022/05/05 08:19:26;;;;;;;5.90;5.20;;;;;;;21.60;47.92;99213.89;105178;1268;60818;-77
2022/05/05 08:21:52;;;;;;;6.10;5.50;;;;;;;21.61;46.69;99214.98;105105;1270;60650;-77
2022/05/05 08:29:49;;;;;;;6.70;5.80;;;;;;;21.34;47.41;99216.46;105218;1268;68738;-77
2022/05/05 08:32:16;;;;;;;5.30;4.80;;;;;;;21.31;47.34;99215.14;105189;1268;73622;-78
2022/05/05 08:34:42;;;;;;;4.70;4.40;;;;;;;21.18;46.58;99218.42;105176;1268;60582;-78
2022/05/05 08:37:09;;;;;;;5.50;5.00;;;;;;;21.17;47.12;99215.33;105192;1268;60357;-79
2022/05/05 08:39:36;;;;;;;5.60;5.00;;;;;;;21.47;47.20;99217.29;105167;1268;60344;-78
2022/05/05 08:42:04;;;;;;;6.60;5.70;;;;;;;21.78;46.71;99213.54;105200;1268;68227;-76
2022/05/05 08:44:31;;;;;;;8.30;4.80;;;;;;;22.11;46.67;99212.54;105191;1268;74116;-76
2022/05/05 08:46:59;;;;;;;5.90;5.40;;;;;;;22.25;45.07;99210.23;104998;1268;60522;-77
2022/05/05 08:49:26;;;;;;;6.10;5.60;;;;;;;22.17;44.51;99212.23;105029;1268;60457;-76
2022/05/05 08:51:54;;;;;;;3.60;3.30;;;;;;;22.18;45.22;99213.27;104957;1269;73412;-78
2022/05/05 08:54:25;;;;;;;3.70;3.30;;;;;;;22.25;44.80;99212.84;105240;1268;68699;-77
2022/05/05 08:56:52;;;;;;;4.20;3.60;;;;;;;22.37;44.35;99213.27;105279;1268;72636;-77
2022/05/05 08:59:20;;;;;;;3.70;3.30;;;;;;;22.44;44.70;99216.27;105157;1268;60572;-77
2022/05/05 09:01:46;;;;;;;4.20;3.80;;;;;;;22.65;43.81;99211.44;105176;1268;61929;-78
2022/05/05 09:04:13;;;;;;;4.40;3.80;;;;;;;22.64;43.75;99212.75;105176;1270;73872;-77
2022/05/05 09:06:51;;;;;;;2.70;2.50;;;;;;;22.76;43.10;99210.84;105185;1268;70507;-77
2022/05/05 09:09:31;;;;;;;3.00;2.80;;;;;;;23.07;43.38;99203.91;105240;1268;73930;-77
2022/05/05 09:12:18;;;;;;;3.20;2.90;;;;;;;23.31;43.22;99199.86;105183;1268;60367;-79
2022/05/05 09:14:50;;;;;;;3.40;3.10;;;;;;;23.56;43.21;99200.98;105210;1268;60568;-77
2022/05/05 09:17:24;;;;;;;2.60;2.40;;;;;;;23.69;43.41;99200.45;105235;1268;74308;-77
2022/05/05 09:19:56;;;;;;;3.20;2.50;;;;;;;23.79;43.04;99199.31;105104;1269;70177;-78
2022/05/05 09:22:25;;;;;;;2.60;2.40;;;;;;;23.64;42.00;99200.86;105210;1268;74101;-78
2022/05/05 09:24:56;;;;;;;2.90;2.30;;;;;;;23.42;41.42;99200.88;104887;1269;60542;-77
2022/05/05 09:27:23;;;;;;;4.10;3.00;;;;;;;23.29;42.25;99202.05;105192;1268;60758;-77
2022/05/05 09:29:56;;;;;;;4.10;3.20;;;;;;;23.20;42.88;99203.50;105233;1268;74313;-77
2022/05/05 09:32:34;;;;;;;4.30;3.90;;;;;;;23.21;43.69;99204.07;105195;1268;68844;-76
2022/05/05 09:35:02;;;;;;;3.80;3.50;;;;;;;23.30;43.43;99197.73;105318;1268;72837;-77
2022/05/05 09:37:30;;;;;;;4.40;4.00;;;;;;;23.32;43.07;99194.96;105185;1268;60478;-78
2022/05/05 09:40:01;;;;;;;5.60;4.50;;;;;;;23.28;43.29;99198.77;105325;1268;60843;-77
2022/05/05 09:42:46;;;;;;;4.00;3.60;;;;;;;23.19;43.18;99195.58;105163;1268;74308;-76
2022/05/05 09:45:18;;;;;;;4.70;3.60;;;;;;;23.24;43.38;99196.48;105214;1268;66587;-76
2022/05/05 09:48:01;;;;;;;3.70;3.30;;;;;;;23.22;43.39;99195.80;104937;1270;73248;-79
2022/05/05 09:50:30;;;;;;;4.00;3.60;;;;;;;23.27;43.63;99194.73;105221;1268;60578;-78
2022/05/05 09:58:38;;;;;;;3.70;3.10;;;;;;;23.31;43.33;99193.48;105271;1268;70410;-77
2022/05/05 10:01:09;;;;;;;3.30;3.00;;;;;;;23.19;42.14;99195.59;105270;1268;74214;-78
2022/05/05 10:04:00;;;;;;;4.70;3.40;;;;;;;23.07;42.26;99197.26;105280;1268;60515;-78
2022/05/05 10:06:31;;;;;;;4.00;3.70;;;;;;;22.92;42.48;99196.54;104775;1277;62106;-76
2022/05/05 10:09:19;;;;;;;4.00;3.70;;;;;;;22.87;42.42;99196.73;104792;1276;74294;-75
2022/05/05 10:11:46;;;;;;;3.60;3.30;;;;;;;22.83;43.01;99198.08;104859;1277;70235;-78
2022/05/05 10:14:16;;;;;;;2.90;2.50;;;;;;;22.85;41.93;99195.70;104919;1277;72666;-77
2022/05/05 10:16:43;;;;;;;3.30;2.70;;;;;;;22.72;42.23;99201.66;104833;1275;60970;-76
2022/05/05 10:19:11;;;;;;;3.80;2.50;;;;;;;22.80;42.86;99196.66;104855;1277;62037;-76
2022/05/05 10:22:03;;;;;;;2.90;2.60;;;;;;;22.85;42.30;99189.16;104821;1275;75326;-77
2022/05/05 10:24:32;;;;;;;2.90;2.70;;;;;;;22.84;42.44;99187.89;104812;1277;69212;-76
2022/05/05 10:27:01;;;;;;;3.30;3.10;;;;;;;22.95;42.67;99186.39;104885;1277;73643;-76
2022/05/05 10:29:39;;;;;;;2.90;2.40;;;;;;;22.98;42.27;99180.79;104856;1277;60485;-76
2022/05/05 10:32:10;;;;;;;2.70;2.20;;;;;;;23.06;41.98;99179.75;104892;1277;60842;-77
2022/05/05 10:34:41;;;;;;;3.60;2.40;;;;;;;23.07;42.19;99174.59;104818;1277;76050;-77
2022/05/05 10:37:20;;;;;;;2.10;2.00;;;;;;;23.15;42.55;99173.39;104886;1277;70345;-76
2022/05/05 10:39:59;;;;;;;3.10;2.30;;;;;;;23.33;42.72;99166.81;104854;1277;73478;-77
2022/05/05 10:42:32;;;;;;;2.30;2.10;;;;;;;23.38;41.71;99167.96;104813;1276;60542;-77
2022/05/05 10:45:19;;;;;;;2.90;1.90;;;;;;;23.12;39.88;99170.64;105128;1268;60793;-76
2022/05/05 10:47:52;;;;;;;2.40;2.00;;;;;;;22.99;41.01;99161.27;105204;1268;75791;-77
2022/05/05 10:50:29;;;;;;;2.10;1.70;;;;;;;23.07;41.31;99165.45;105221;1268;69235;-78
2022/05/05 10:52:57;;;;;;;1.80;1.70;;;;;;;23.08;40.81;99165.50;105233;1268;73419;-77
2022/05/05 10:55:48;;;;;;;1.70;1.60;;;;;;;23.08;40.51;99164.66;105258;1268;60466;-76
2022/05/05 10:58:53;;;;;;;1.60;1.50;;;;;;;23.05;40.83;99162.13;105011;1270;60370;-76
2022/05/05 11:01:20;;;;;;;5.60;1.90;;;;;;;23.08;40.61;99160.23;105210;1268;74501;-77
2022/05/05 11:04:06;;;;;;;3.80;1.90;;;;;;;23.08;40.33;99158.64;104970;1268;70097;-78
2022/05/05 11:06:34;;;;;;;3.20;2.40;;;;;;;23.05;40.22;99157.54;105214;1268;74613;-77
2022/05/05 11:09:00;;;;;;;2.60;1.70;;;;;;;23.09;40.76;99156.70;105267;1268;61381;-77
2022/05/05 11:11:42;;;;;;;2.00;1.70;;;;;;;23.18;40.87;99151.45;105199;1268;61289;-76
2022/05/05 11:22:59;;;;;;;3.10;2.10;;;;;;;23.56;39.60;99143.52;105030;1268;61365;-77
2022/05/05 11:25:25;;;;;;;2.20;2.00;;;;;;;23.54;39.84;99139.63;105199;1268;61282;-76
2022/05/05 11:27:56;;;;;;;2.30;1.90;;;;;;;23.61;39.87;99140.38;105218;1268;75923;-76
2022/05/05 11:30:23;;;;;;;3.20;1.70;;;;;;;23.62;39.05;99139.55;105242;1268;69207;-77
2022/05/05 11:32:49;;;;;;;2.60;1.80;;;;;;;23.56;39.58;99139.48;105085;1269;74476;-79
2022/05/05 11:35:22;;;;;;;7.00;2.40;;;;;;;23.44;40.13;99145.81;105170;1268;61318;-77
2022/05/05 11:37:48;;;;;;;2.80;2.10;;;;;;;23.31;39.99;99143.23;105210;1268;61240;-77
2022/05/05 11:40:15;;;;;;;2.50;2.30;;;;;;;23.19;39.21;99142.42;105193;1268;74343;-77
2022/05/05 11:45:35;;;;;;;2.40;2.20;;;;;;;23.17;40.30;99136.36;105192;1268;74213;-76
2022/05/05 11:48:15;;;;;;;2.70;2.10;;;;;;;23.27;40.11;99135.23;104940;1268;61373;-77
2022/05/05 11:50:45;;;;;;;2.90;2.10;;;;;;;23.43;40.42;99129.10;105271;1268;61186;-78
2022/05/05 11:53:17;;;;;;;1.80;1.70;;;;;;;23.57;40.26;99129.46;105209;1268;76144;-78
2022/05/05 11:55:45;;;;;;;2.70;1.80;;;;;;;23.68;40.17;99126.58;105343;1268;66271;-77
2022/05/05 12:03:58;;;;;;;2.70;1.80;;;;;;;23.52;38.96;99124.61;105213;1268;61276;-77